Time;durP1;ratioP1;P1;durP2;ratioP2;P2;SDS_P1;SDS_P2;PMS_P1;PMS_P2;Temp;Humidity;BMP_temperature;BMP_pressure;BME280_temperature;BME280_humidity;BME280_pressure;Samples;Min_cycle;Max_cycle;Signal;HPM_P1;HPM_P2
2021/12/09 00:02:20;;;;;;;;;110.00;74.33;;;;;-146.39;100.00;62182.44;6315216;20;3679378;-48
2021/12/09 00:04:53;;;;;;;;;158.00;112.00;;;;;-146.39;100.00;62182.44;6282590;20;4479398;-47
2021/12/09 00:07:24;;;;;;;;;93.00;68.67;;;;;-146.39;100.00;62182.44;6280599;20;3637725;-50
2021/12/09 00:09:55;;;;;;;;;304.25;207.00;;;;;-146.39;100.00;62182.44;6313604;20;3711922;-48
2021/12/09 00:12:24;;;;;;;;;158.00;119.00;;;;;-146.39;100.00;62182.44;6277824;20;1954535;-47
2021/12/09 00:14:55;;;;;;;;;409.33;270.67;;;;;-146.39;100.00;62182.44;6282551;20;3735727;-48
2021/12/09 00:17:27;;;;;;;;;401.75;265.75;;;;;-146.39;100.00;62182.44;6281741;20;4505428;-47
2021/12/09 00:19:56;;;;;;;;;261.00;183.00;;;;;-146.39;100.00;62182.44;6280430;20;3686705;-46
2021/12/09 00:22:27;;;;;;;;;232.00;166.00;;;;;-146.39;100.00;62182.44;6282358;20;3701285;-46
2021/12/09 00:24:57;;;;;;;;;140.00;107.00;;;;;-146.39;100.00;62182.44;6281455;20;3712791;-46
2021/12/09 00:27:28;;;;;;;;;145.50;117.50;;;;;-146.39;100.00;62182.44;6279869;20;4479388;-47
2021/12/09 00:29:57;;;;;;;;;174.25;121.50;;;;;-146.39;100.00;62182.44;6280887;20;4458595;-49
2021/12/09 00:32:28;;;;;;;;;140.00;104.25;;;;;-146.39;100.00;62182.44;6313075;20;3717164;-46
2021/12/09 00:34:58;;;;;;;;;111.00;90.67;;;;;-146.39;100.00;62182.44;6278312;20;3690865;-45
2021/12/09 00:37:36;;;;;;;;;174.50;148.75;;;;;-146.39;100.00;62182.44;6279596;20;3706458;-46
2021/12/09 00:40:08;;;;;;;;;114.00;80.00;;;;;-146.39;100.00;62182.44;6311074;20;3696139;-47
2021/12/09 00:42:38;;;;;;;;;91.67;63.67;;;;;-146.39;100.00;62182.44;6282056;20;3659688;-49
2021/12/09 00:45:08;;;;;;;;;96.67;68.67;;;;;-146.39;100.00;62182.44;6314515;20;3662857;-47
2021/12/09 00:47:38;;;;;;;;;105.00;79.67;;;;;-146.39;100.00;62182.44;6312316;20;3673220;-47
2021/12/09 00:50:10;;;;;;;;;100.00;74.00;;;;;-146.39;100.00;62182.44;6278962;20;3668731;-49
2021/12/09 00:52:40;;;;;;;;;101.33;75.67;;;;;-146.39;100.00;62182.44;6312080;20;3682500;-46
2021/12/09 00:55:10;;;;;;;;;101.00;75.33;;;;;-146.39;100.00;62182.44;6280928;20;3664789;-46
2021/12/09 00:57:43;;;;;;;;;97.33;66.67;;;;;-146.39;100.00;62182.44;6312732;20;3646068;-45
2021/12/09 01:00:20;;;;;;;;;98.33;75.33;;;;;-146.39;100.00;62182.44;6311823;20;3645151;-46
2021/12/09 01:02:50;;;;;;;;;107.67;78.67;;;;;-146.39;100.00;62182.44;6313112;20;3692939;-46
2021/12/09 01:05:20;;;;;;;;;100.33;75.00;;;;;-146.39;100.00;62182.44;6281021;20;3672245;-48
2021/12/09 01:07:50;;;;;;;;;100.33;70.33;;;;;-146.39;100.00;62182.44;6279192;20;3665451;-48
2021/12/09 01:10:20;;;;;;;;;97.33;68.00;;;;;-146.39;100.00;62182.44;6277364;20;3630517;-47
2021/12/09 01:12:50;;;;;;;;;95.33;68.33;;;;;-146.39;100.00;62182.44;6312655;20;3654382;-46
2021/12/09 01:15:21;;;;;;;;;105.00;77.33;;;;;-146.39;100.00;62182.44;6309589;20;3673140;-47
2021/12/09 01:17:52;;;;;;;;;107.67;78.00;;;;;-146.39;100.00;62182.44;6279438;20;3691009;-50
2021/12/09 01:20:25;;;;;;;;;99.67;75.00;;;;;-146.39;100.00;62182.44;6279704;20;3671092;-48
2021/12/09 01:22:58;;;;;;;;;94.00;60.67;;;;;-146.39;100.00;62182.44;6278198;20;3659651;-47
2021/12/09 01:25:32;;;;;;;;;96.67;71.00;;;;;-146.39;100.00;62182.44;6313549;20;3648147;-47
2021/12/09 01:28:04;;;;;;;;;96.33;69.67;;;;;-146.39;100.00;62182.44;6310579;20;3652296;-51
2021/12/09 01:30:35;;;;;;;;;93.33;71.00;;;;;-146.39;100.00;62182.44;6309771;20;3639895;-47
2021/12/09 01:33:06;;;;;;;;;89.67;67.00;;;;;-146.39;100.00;62182.44;6311276;20;3644002;-47
2021/12/09 01:35:37;;;;;;;;;86.33;64.33;;;;;-146.39;100.00;62182.44;6313182;20;3641007;-51
2021/12/09 01:38:11;;;;;;;;;93.67;69.00;;;;;-146.39;100.00;62182.44;6312369;20;3655547;-48
2021/12/09 01:40:42;;;;;;;;;86.00;61.67;;;;;-146.39;100.00;62182.44;6311409;20;3661710;-47
2021/12/09 01:43:14;;;;;;;;;88.67;58.33;;;;;-146.39;100.00;62182.44;6312898;20;3659725;-45
2021/12/09 01:45:43;;;;;;;;;91.67;67.67;;;;;-146.39;100.00;62182.44;6313479;20;3650197;-48
2021/12/09 01:48:13;;;;;;;;;99.33;71.00;;;;;-146.39;100.00;62182.44;6310534;20;3653487;-48
2021/12/09 01:50:43;;;;;;;;;94.33;67.67;;;;;-146.39;100.00;62182.44;6312508;20;3647111;-46
2021/12/09 01:53:12;;;;;;;;;91.67;67.00;;;;;-146.39;100.00;62182.44;6309010;20;3654420;-46
2021/12/09 01:55:42;;;;;;;;;88.67;67.00;;;;;-146.39;100.00;62182.44;6312396;20;3652371;-48
2021/12/09 01:58:12;;;;;;;;;91.67;69.00;;;;;-146.39;100.00;62182.44;6310507;20;3643518;-46
2021/12/09 02:00:41;;;;;;;;;85.67;63.33;;;;;-146.39;100.00;62182.44;6308127;20;3653721;-47
2021/12/09 02:03:11;;;;;;;;;99.33;69.67;;;;;-146.39;100.00;62182.44;6312293;20;3670123;-50
2021/12/09 02:05:41;;;;;;;;;90.33;65.00;;;;;-146.39;100.00;62182.44;6277694;20;3660674;-46
2021/12/09 02:08:15;;;;;;;;;96.33;68.00;;;;;-146.39;100.00;62182.44;6310269;20;3655665;-49
2021/12/09 02:10:48;;;;;;;;;105.67;73.33;;;;;-146.39;100.00;62182.44;6312989;20;3680447;-47
2021/12/09 02:13:19;;;;;;;;;97.50;69.00;;;;;-146.39;100.00;62182.44;6278463;20;2707589;-47
2021/12/09 02:15:52;;;;;;;;;107.67;78.33;;;;;-146.39;100.00;62182.44;6310336;20;3690920;-47
2021/12/09 02:18:23;;;;;;;;;91.67;66.67;;;;;-146.39;100.00;62182.44;6278880;20;3649228;-47
2021/12/09 02:21:14;;;;;;;;;100.33;73.67;;;;;-146.39;100.00;62182.44;6311180;20;3671173;-47
2021/12/09 02:23:49;;;;;;;;;92.67;69.00;;;;;-146.39;100.00;62182.44;6278069;20;3632503;-47
2021/12/09 02:26:28;;;;;;;;;89.00;67.00;;;;;-146.39;100.00;62182.44;6312255;20;3649647;-47
2021/12/09 02:28:58;;;;;;;;;78.33;52.00;;;;;-146.39;100.00;62182.44;6309974;20;2874370;-47
2021/12/09 02:31:29;;;;;;;;;87.67;67.00;;;;;-146.39;100.00;62182.44;6311749;20;2898335;-46
2021/12/09 02:34:01;;;;;;;;;97.33;68.33;;;;;-146.39;100.00;62182.44;6310941;20;3651260;-47
2021/12/09 02:36:37;;;;;;;;;99.67;74.67;;;;;-146.39;100.00;62182.44;6311129;20;3657553;-48
2021/12/09 02:39:14;;;;;;;;;99.33;71.00;;;;;-146.39;100.00;62182.44;6306682;20;3659662;-47
2021/12/09 02:41:47;;;;;;;;;103.00;75.00;;;;;-146.39;100.00;62182.44;6275405;20;3670034;-46
2021/12/09 02:44:21;;;;;;;;;97.33;70.00;;;;;-146.39;100.00;62182.44;6308971;20;3663803;-47
2021/12/09 02:46:55;;;;;;;;;97.33;64.33;;;;;-146.39;100.00;62182.44;6277503;20;3656284;-48
2021/12/09 02:49:29;;;;;;;;;100.67;72.67;;;;;-146.39;100.00;62182.44;6307177;20;3679425;-46
2021/12/09 02:52:03;;;;;;;;;90.67;67.67;;;;;-146.39;100.00;62182.44;6276857;20;3643964;-46
2021/12/09 02:54:33;;;;;;;;;98.00;68.00;;;;;-146.39;100.00;62182.44;6310821;20;3652298;-46
2021/12/09 02:57:07;;;;;;;;;99.00;73.67;;;;;-146.39;100.00;62182.44;6310944;20;3667918;-46
2021/12/09 02:59:37;;;;;;;;;98.67;73.33;;;;;-146.39;100.00;62182.44;6308089;20;3666945;-46
2021/12/09 03:02:11;;;;;;;;;94.67;67.33;;;;;-146.39;100.00;62182.44;6273649;20;3666954;-48
2021/12/09 03:04:57;;;;;;;;;95.33;73.67;;;;;-146.39;100.00;62182.44;6307757;20;3654514;-46
2021/12/09 03:07:37;;;;;;;;;96.67;71.67;;;;;-146.39;100.00;62182.44;6309740;20;3652327;-45
2021/12/09 03:10:27;;;;;;;;;100.00;68.33;;;;;-146.39;100.00;62182.44;6277393;20;2902286;-46
2021/12/09 03:13:00;;;;;;;;;99.00;71.33;;;;;-146.39;100.00;62182.44;6311833;20;3660751;-46
2021/12/09 03:15:34;;;;;;;;;112.00;89.00;;;;;-146.39;100.00;62182.44;6311442;20;3672098;-48
2021/12/09 03:18:03;;;;;;;;;88.00;67.50;;;;;-146.39;100.00;62182.44;6280370;20;2894093;-46
2021/12/09 03:20:33;;;;;;;;;98.00;70.00;;;;;-146.39;100.00;62182.44;6283199;20;3657517;-49
2021/12/09 03:23:03;;;;;;;;;86.33;62.67;;;;;-146.39;100.00;62182.44;6314800;20;3648493;-49
2021/12/09 03:25:32;;;;;;;;;97.33;66.00;;;;;-146.39;100.00;62182.44;6315380;20;3663785;-48
2021/12/09 03:28:02;;;;;;;;;100.67;75.33;;;;;-146.39;100.00;62182.44;6314191;20;3667094;-49
2021/12/09 03:30:32;;;;;;;;;78.33;59.67;;;;;-146.39;100.00;62182.44;6281351;20;2887971;-48
2021/12/09 03:33:02;;;;;;;;;95.00;69.00;;;;;-146.39;100.00;62182.44;6315115;20;3657535;-45
2021/12/09 03:35:32;;;;;;;;;95.00;69.67;;;;;-146.39;100.00;62182.44;6314757;20;3650269;-47
2021/12/09 03:38:03;;;;;;;;;96.67;68.00;;;;;-146.39;100.00;62182.44;6316381;20;3659613;-47
2021/12/09 03:40:33;;;;;;;;;92.00;66.67;;;;;-146.39;100.00;62182.44;6281770;20;3654403;-46
2021/12/09 03:43:03;;;;;;;;;99.67;74.00;;;;;-146.39;100.00;62182.44;6315354;20;3676250;-47
2021/12/09 03:45:32;;;;;;;;;93.67;65.00;;;;;-146.39;100.00;62182.44;6282658;20;3654516;-48
2021/12/09 03:48:03;;;;;;;;;89.67;64.67;;;;;-146.39;100.00;62182.44;6313182;20;3656451;-45
2021/12/09 03:50:32;;;;;;;;;91.67;64.67;;;;;-146.39;100.00;62182.44;6315022;20;3656467;-47
2021/12/09 03:53:03;;;;;;;;;88.00;64.33;;;;;-146.39;100.00;62182.44;6315410;20;3649195;-46
2021/12/09 03:55:32;;;;;;;;;90.00;67.33;;;;;-146.39;100.00;62182.44;6314546;20;3648181;-47
2021/12/09 03:58:02;;;;;;;;;87.67;65.67;;;;;-146.39;100.00;62182.44;6314793;20;3645107;-47
2021/12/09 04:00:30;;;;;;;;;90.00;69.00;;;;;-146.39;100.00;62182.44;6314227;20;2611807;-48
2021/12/09 04:03:00;;;;;;;;;87.33;64.00;;;;;-146.39;100.00;62182.44;6282192;20;3664999;-44
2021/12/09 04:05:29;;;;;;;;;81.00;62.50;;;;;-146.39;100.00;62182.44;6315691;20;2883691;-46
2021/12/09 04:07:59;;;;;;;;;82.00;59.00;;;;;-146.39;100.00;62182.44;6281688;20;3649244;-45
2021/12/09 04:10:31;;;;;;;;;81.33;57.33;;;;;-146.39;100.00;62182.44;6314728;20;3629498;-45
2021/12/09 04:13:01;;;;;;;;;93.33;65.67;;;;;-146.39;100.00;62182.44;6314333;20;3652311;-45
2021/12/09 04:15:32;;;;;;;;;83.00;63.67;;;;;-146.39;100.00;62182.44;6313107;20;3648211;-47
2021/12/09 04:18:03;;;;;;;;;89.67;69.67;;;;;-146.39;100.00;62182.44;6315551;20;2894046;-45
2021/12/09 04:20:32;;;;;;;;;93.33;69.00;;;;;-146.39;100.00;62182.44;6314061;20;3645015;-45
2021/12/09 04:23:03;;;;;;;;;101.67;74.67;;;;;-146.39;100.00;62182.44;6312779;20;3666088;-48
2021/12/09 04:25:35;;;;;;;;;101.33;73.00;;;;;-146.39;100.00;62182.44;6313349;20;3669106;-49
2021/12/09 04:28:05;;;;;;;;;102.00;79.00;;;;;-146.39;100.00;62182.44;6279221;20;3678419;-45
2021/12/09 04:30:35;;;;;;;;;102.33;76.67;;;;;-146.39;100.00;62182.44;6279866;20;3668350;-45
2021/12/09 04:33:05;;;;;;;;;180.00;137.00;;;;;-146.39;100.00;62182.44;6284290;20;2760707;-46
2021/12/09 04:35:35;;;;;;;;;106.33;79.33;;;;;-146.39;100.00;62182.44;6314199;20;3664937;-45
2021/12/09 04:38:04;;;;;;;;;79.67;54.00;;;;;-146.39;100.00;62182.44;6280612;20;2890980;-45
2021/12/09 04:40:34;;;;;;;;;89.67;67.00;;;;;-146.39;100.00;62182.44;6313207;20;3647205;-45
2021/12/09 04:43:05;;;;;;;;;78.67;64.67;;;;;-146.39;100.00;62182.44;6312533;20;2881503;-46
2021/12/09 04:45:35;;;;;;;;;90.33;67.00;;;;;-146.39;100.00;62182.44;6313050;20;3647219;-48
2021/12/09 04:48:07;;;;;;;;;92.33;63.67;;;;;-146.39;100.00;62182.44;6310826;20;3660619;-46
2021/12/09 04:50:39;;;;;;;;;93.67;72.67;;;;;-146.39;100.00;62182.44;6313768;20;3640890;-46
2021/12/09 04:53:12;;;;;;;;;97.33;70.33;;;;;-146.39;100.00;62182.44;6314796;20;3660627;-46
2021/12/09 04:55:41;;;;;;;;;105.67;74.33;;;;;-146.39;100.00;62182.44;6313534;20;3671257;-47
2021/12/09 04:58:11;;;;;;;;;102.67;75.67;;;;;-146.39;100.00;62182.44;6277356;20;3680509;-44
2021/12/09 05:00:41;;;;;;;;;109.33;77.67;;;;;-146.39;100.00;62182.44;6280022;20;3685663;-48
2021/12/09 05:03:13;;;;;;;;;101.33;70.00;;;;;-146.39;100.00;62182.44;6278941;20;3670012;-46
2021/12/09 05:05:52;;;;;;;;;100.00;72.00;;;;;-146.39;100.00;62182.44;6280775;20;3666866;-46
2021/12/09 05:08:28;;;;;;;;;228.67;176.00;;;;;-146.39;100.00;62182.44;6313324;20;3708539;-47
2021/12/09 05:11:12;;;;;;;;;175.33;126.67;;;;;-146.39;100.00;62182.44;6282231;20;3704424;-46
2021/12/09 05:13:42;;;;;;;;;96.00;72.00;;;;;-146.39;100.00;62182.44;6282320;20;3652315;-45
2021/12/09 05:16:12;;;;;;;;;101.33;75.00;;;;;-146.39;100.00;62182.44;6313247;20;3686673;-48
2021/12/09 05:18:42;;;;;;;;;80.50;64.50;;;;;-146.39;100.00;62182.44;6282101;20;2874603;-47
2021/12/09 05:21:13;;;;;;;;;181.67;141.00;;;;;-146.39;100.00;62182.44;6280004;20;4349186;-47
2021/12/09 05:23:43;;;;;;;;;92.33;66.67;;;;;-146.39;100.00;62182.44;6313061;20;3661677;-47
2021/12/09 05:26:14;;;;;;;;;113.33;89.00;;;;;-146.39;100.00;62182.44;6311753;20;3689780;-47
2021/12/09 05:28:54;;;;;;;;;85.00;69.50;;;;;-146.39;100.00;62182.44;6277692;20;2872569;-47
2021/12/09 05:34:18;;;;;;;;;111.67;97.67;;;;;-146.39;100.00;62182.44;6281489;20;3680456;-46
2021/12/09 05:36:48;;;;;;;;;142.67;101.33;;;;;-146.39;100.00;62182.44;6276326;20;3714913;-46
2021/12/09 05:39:19;;;;;;;;;110.33;80.33;;;;;-146.39;100.00;62182.44;6278638;20;3676300;-46
2021/12/09 05:41:49;;;;;;;;;105.67;84.33;;;;;-146.39;100.00;62182.44;6278524;20;3667983;-45
2021/12/09 05:44:19;;;;;;;;;108.67;73.67;;;;;-146.39;100.00;62182.44;6313209;20;3680464;-48
2021/12/09 05:46:48;;;;;;;;;85.50;66.00;;;;;-146.39;100.00;62182.44;6312007;20;2873182;-45
2021/12/09 05:49:19;;;;;;;;;104.00;74.25;;;;;-146.39;100.00;62182.44;6276150;20;4445016;-45
2021/12/09 05:51:51;;;;;;;;;126.25;101.50;;;;;-146.39;100.00;62182.44;6311620;20;3705498;-50
2021/12/09 05:54:20;;;;;;;;;112.33;82.33;;;;;-146.39;100.00;62182.44;6310857;20;3697113;-47
2021/12/09 05:56:50;;;;;;;;;97.33;72.00;;;;;-146.39;100.00;62182.44;6279783;20;2898298;-46
2021/12/09 05:59:20;;;;;;;;;84.00;64.00;;;;;-146.39;100.00;62182.44;6309591;20;3638798;-46
2021/12/09 06:01:48;;;;;;;;;56.50;50.00;;;;;-146.39;100.00;62182.44;6308738;20;2863811;-46
2021/12/09 06:04:19;;;;;;;;;74.33;56.33;;;;;-146.39;100.00;62182.44;6277976;20;3627360;-48
2021/12/09 06:06:50;;;;;;;;;80.33;60.67;;;;;-146.39;100.00;62182.44;6311930;20;3633745;-45
2021/12/09 06:09:19;;;;;;;;;81.00;65.00;;;;;-146.39;100.00;62182.44;6306483;20;2500299;-47
2021/12/09 06:11:50;;;;;;;;;61.00;42.00;;;;;-146.39;100.00;62182.44;6280022;20;2891915;-47
2021/12/09 06:14:19;;;;;;;;;83.67;62.67;;;;;-146.39;100.00;62182.44;6311515;20;2913898;-45
2021/12/09 06:16:49;;;;;;;;;90.33;65.00;;;;;-146.39;100.00;62182.44;6312395;20;3663868;-46
2021/12/09 06:19:18;;;;;;;;;68.50;50.50;;;;;-146.39;100.00;62182.44;6310204;20;2872383;-45
2021/12/09 06:21:48;;;;;;;;;78.50;55.50;;;;;-146.39;100.00;62182.44;6280344;20;2875356;-45
2021/12/09 06:24:23;;;;;;;;;50.33;33.00;;;;;-146.39;100.00;62182.44;6280565;20;2862762;-47
2021/12/09 06:26:51;;;;;;;;;72.50;52.50;;;;;-146.39;100.00;62182.44;6311166;20;2874232;-45
2021/12/09 06:29:20;;;;;;;;;66.00;51.00;;;;;-146.39;100.00;62182.44;6279146;20;2867966;-45
2021/12/09 06:31:48;;;;;;;;;68.00;54.50;;;;;-146.39;100.00;62182.44;6274754;20;2500299;-47
2021/12/09 06:34:16;;;;;;;;;59.50;49.50;;;;;-146.39;100.00;62182.44;6274319;20;2514893;-45
2021/12/09 06:36:46;;;;;;;;;83.00;61.67;;;;;-146.39;100.00;62182.44;6280726;20;2898375;-46
2021/12/09 06:39:14;;;;;;;;;62.00;50.00;;;;;-146.39;100.00;62182.44;6316061;20;2866932;-50
2021/12/09 06:41:45;;;;;;;;;74.50;55.00;;;;;-146.39;100.00;62182.44;6285803;20;2880434;-46
2021/12/09 06:44:12;;;;;;;;;64.00;49.50;;;;;-146.39;100.00;62182.44;6282431;20;2498246;-47
2021/12/09 06:46:40;;;;;;;;;73.00;55.00;;;;;-146.39;100.00;62182.44;6282407;20;2475227;-46
2021/12/09 06:49:08;;;;;;;;;69.50;53.00;;;;;-146.39;100.00;62182.44;6282337;20;2493011;-45
2021/12/09 06:51:38;;;;;;;;;77.00;53.33;;;;;-146.39;100.00;62182.44;6285363;20;2884647;-46
2021/12/09 06:54:06;;;;;;;;;70.00;58.50;;;;;-146.39;100.00;62182.44;6313492;20;2856623;-49
2021/12/09 06:56:35;;;;;;;;;71.50;57.00;;;;;-146.39;100.00;62182.44;6283350;20;2859829;-46
2021/12/09 06:59:04;;;;;;;;;71.50;54.00;;;;;-146.39;100.00;62182.44;6282504;20;2879875;-46
2021/12/09 07:01:38;;;;;;;;;67.00;55.00;;;;;-146.39;100.00;62182.44;6285314;20;2867050;-46
2021/12/09 07:04:08;;;;;;;;;66.50;51.00;;;;;-146.39;100.00;62182.44;6277198;20;2500352;-46
2021/12/09 07:06:38;;;;;;;;;62.00;44.00;;;;;-146.39;100.00;62182.44;6285110;20;2864895;-45
2021/12/09 07:09:08;;;;;;;;;64.67;49.00;;;;;-146.39;100.00;62182.44;6281213;20;2869056;-46
2021/12/09 07:11:47;;;;;;;;;77.67;54.33;;;;;-146.39;100.00;62182.44;6317917;20;2874248;-45
2021/12/09 07:14:18;;;;;;;;;75.50;57.00;;;;;-146.39;100.00;62182.44;6315261;20;2875280;-46
2021/12/09 07:16:47;;;;;;;;;73.67;56.00;;;;;-146.39;100.00;62182.44;6285602;20;2883591;-47
2021/12/09 07:19:18;;;;;;;;;78.00;54.00;;;;;-146.39;100.00;62182.44;6315038;20;3641048;-45
2021/12/09 07:21:46;;;;;;;;;59.50;47.00;;;;;-146.39;100.00;62182.44;6311828;20;2531495;-45
2021/12/09 07:24:18;;;;;;;;;65.50;51.00;;;;;-146.39;100.00;62182.44;6280424;20;2490899;-45
2021/12/09 07:26:46;;;;;;;;;56.00;47.00;;;;;-146.39;100.00;62182.44;6282638;20;2866921;-44
2021/12/09 07:29:15;;;;;;;;;76.67;57.00;;;;;-146.39;100.00;62182.44;6283497;20;2886712;-46
2021/12/09 07:31:44;;;;;;;;;62.00;44.50;;;;;-146.39;100.00;62182.44;6315588;20;2887727;-46
2021/12/09 07:34:16;;;;;;;;;67.67;51.33;;;;;-146.39;100.00;62182.44;6282414;20;2877422;-46
2021/12/09 07:36:45;;;;;;;;;55.00;49.00;;;;;-146.39;100.00;62182.44;6314747;20;2841913;-45
2021/12/09 07:39:13;;;;;;;;;70.00;53.00;;;;;-146.39;100.00;62182.44;6281800;20;2496067;-46
2021/12/09 07:41:43;;;;;;;;;72.25;53.75;;;;;-146.39;100.00;62182.44;6283651;20;3614908;-45
2021/12/09 07:44:13;;;;;;;;;71.50;56.50;;;;;-146.39;100.00;62182.44;6315226;20;2855490;-45
2021/12/09 07:46:43;;;;;;;;;60.00;47.00;;;;;-146.39;100.00;62182.44;6280404;20;2499244;-45
2021/12/09 07:49:12;;;;;;;;;70.00;52.00;;;;;-146.39;100.00;62182.44;6283466;20;2870063;-46
2021/12/09 07:51:48;;;;;;;;;96.33;72.67;;;;;-146.39;100.00;62182.44;6283420;20;3651557;-45
2021/12/09 07:54:19;;;;;;;;;66.00;44.33;;;;;-146.39;100.00;62182.44;6313783;20;2899283;-45
2021/12/09 07:56:49;;;;;;;;;138.33;102.33;;;;;-146.39;100.00;62182.44;6314929;20;3717965;-46
2021/12/09 07:59:19;;;;;;;;;153.67;114.67;;;;;-146.39;100.00;62182.44;6280468;20;3714836;-45
2021/12/09 08:01:49;;;;;;;;;168.50;108.50;;;;;-146.39;100.00;62182.44;6285834;20;4455449;-47
2021/12/09 08:04:19;;;;;;;;;133.33;86.33;;;;;-146.39;100.00;62182.44;6311029;20;3703439;-46
2021/12/09 08:06:48;;;;;;;;;153.33;104.33;;;;;-146.39;100.00;62182.44;6283822;20;3719012;-48
2021/12/09 08:09:18;;;;;;;;;112.00;83.67;;;;;-146.39;100.00;62182.44;6280382;20;3690920;-47
2021/12/09 08:11:47;;;;;;;;;91.00;66.50;;;;;-146.39;100.00;62182.44;6284670;20;2888871;-45
2021/12/09 08:14:19;;;;;;;;;80.33;60.33;;;;;-146.39;100.00;62182.44;6284176;20;3647468;-45
2021/12/09 08:17:07;;;;;;;;;85.33;62.67;;;;;-146.39;100.00;62182.44;6315415;20;3640902;-45
2021/12/09 08:19:40;;;;;;;;;67.00;51.50;;;;;-146.39;100.00;62182.44;6311083;20;2499274;-46
2021/12/09 08:22:11;;;;;;;;;72.67;55.67;;;;;-146.39;100.00;62182.44;6283339;20;3622167;-46
2021/12/09 08:24:40;;;;;;;;;83.00;56.33;;;;;-146.39;100.00;62182.44;6313613;20;2889986;-47
2021/12/09 08:27:10;;;;;;;;;87.00;63.00;;;;;-146.39;100.00;62182.44;6313461;20;3541923;-46
2021/12/09 08:29:38;;;;;;;;;69.00;48.00;;;;;-146.39;100.00;62182.44;6311055;20;2489855;-45
2021/12/09 08:32:07;;;;;;;;;68.00;52.00;;;;;-146.39;100.00;62182.44;6283267;20;2875276;-45
2021/12/09 08:34:37;;;;;;;;;75.67;58.00;;;;;-146.39;100.00;62182.44;6284452;20;2887849;-46
2021/12/09 08:37:06;;;;;;;;;82.67;62.00;;;;;-146.39;100.00;62182.44;6313198;20;2877384;-48
2021/12/09 08:39:35;;;;;;;;;63.00;47.00;;;;;-146.39;100.00;62182.44;6308119;20;2499211;-47
2021/12/09 08:42:05;;;;;;;;;68.50;47.00;;;;;-146.39;100.00;62182.44;6284046;20;2877334;-46
2021/12/09 08:44:33;;;;;;;;;48.50;44.00;;;;;-146.39;100.00;62182.44;6281660;20;2853373;-45
2021/12/09 08:47:03;;;;;;;;;71.50;52.00;;;;;-146.39;100.00;62182.44;6283769;20;2853475;-46
2021/12/09 08:49:33;;;;;;;;;82.00;59.00;;;;;-146.39;100.00;62182.44;6280759;20;3639920;-46
2021/12/09 08:52:05;;;;;;;;;76.00;57.00;;;;;-146.39;100.00;62182.44;6313879;20;2885653;-46
2021/12/09 08:54:34;;;;;;;;;83.33;61.00;;;;;-146.39;100.00;62182.44;6283095;20;3655443;-46
2021/12/09 08:57:05;;;;;;;;;76.33;57.67;;;;;-146.39;100.00;62182.44;6314632;20;3625223;-45
2021/12/09 08:59:34;;;;;;;;;72.00;57.00;;;;;-146.39;100.00;62182.44;6310821;20;2859636;-48
2021/12/09 09:02:08;;;;;;;;;79.33;56.33;;;;;-146.39;100.00;62182.44;6283990;20;3635742;-46
2021/12/09 09:04:38;;;;;;;;;77.00;61.00;;;;;-146.39;100.00;62182.44;6312445;20;2888192;-45
2021/12/09 09:07:08;;;;;;;;;47.50;39.50;;;;;-146.39;100.00;62182.44;6313145;20;2859750;-45
2021/12/09 09:09:40;;;;;;;;;76.67;54.67;;;;;-146.39;100.00;62182.44;6280553;20;2879127;-46
2021/12/09 09:12:13;;;;;;;;;68.50;52.00;;;;;-146.39;100.00;62182.44;6312874;20;2862776;-46
2021/12/09 09:14:43;;;;;;;;;81.33;57.67;;;;;-146.39;100.00;62182.44;6282728;20;2892000;-45
2021/12/09 09:17:13;;;;;;;;;74.33;56.33;;;;;-146.39;100.00;62182.44;6313381;20;2869067;-46
2021/12/09 09:19:43;;;;;;;;;75.00;59.33;;;;;-146.39;100.00;62182.44;6312563;20;2876424;-46
2021/12/09 09:22:13;;;;;;;;;73.50;60.00;;;;;-146.39;100.00;62182.44;6313278;20;2873156;-45
2021/12/09 09:24:43;;;;;;;;;77.67;57.67;;;;;-146.39;100.00;62182.44;6281771;20;2886813;-46
2021/12/09 09:27:12;;;;;;;;;62.00;44.00;;;;;-146.39;100.00;62182.44;6308280;20;2496096;-46
2021/12/09 09:29:43;;;;;;;;;81.00;56.00;;;;;-146.39;100.00;62182.44;6280022;20;3638816;-46
2021/12/09 09:32:12;;;;;;;;;61.00;51.50;;;;;-146.39;100.00;62182.44;6312756;20;2853421;-48
2021/12/09 09:34:45;;;;;;;;;81.00;58.00;;;;;-146.39;100.00;62182.44;6279502;20;2894084;-48
2021/12/09 09:37:15;;;;;;;;;67.50;53.00;;;;;-146.39;100.00;62182.44;6310712;20;2869141;-46
2021/12/09 09:39:45;;;;;;;;;77.33;54.33;;;;;-146.39;100.00;62182.44;6275315;20;3632634;-47
2021/12/09 09:44:57;;;;;;;;;104.00;78.33;;;;;-146.39;100.00;62182.44;6307220;20;3686711;-46
2021/12/09 09:47:29;;;;;;;;;111.00;88.33;;;;;-146.39;100.00;62182.44;6280216;20;3689783;-47
2021/12/09 09:49:59;;;;;;;;;94.67;65.67;;;;;-146.39;100.00;62182.44;6276782;20;3647103;-47
2021/12/09 09:52:29;;;;;;;;;65.00;49.50;;;;;-146.39;100.00;62182.44;6313504;20;2864943;-45
2021/12/09 09:55:01;;;;;;;;;110.67;82.00;;;;;-146.39;100.00;62182.44;6278914;20;3687730;-47
2021/12/09 09:57:30;;;;;;;;;110.33;85.33;;;;;-146.39;100.00;62182.44;6279494;20;3687149;-49
2021/12/09 10:00:00;;;;;;;;;77.67;61.00;;;;;-146.39;100.00;62182.44;6278114;20;2884675;-47
2021/12/09 10:02:30;;;;;;;;;89.67;66.00;;;;;-146.39;100.00;62182.44;6311405;20;3656623;-45
2021/12/09 10:05:02;;;;;;;;;84.00;61.67;;;;;-146.39;100.00;62182.44;6311566;20;3636817;-46
2021/12/09 10:07:33;;;;;;;;;87.33;64.33;;;;;-146.39;100.00;62182.44;6312665;20;2885830;-45
2021/12/09 10:10:08;;;;;;;;;76.33;54.33;;;;;-146.39;100.00;62182.44;6307897;20;2896160;-46
2021/12/09 10:13:03;;;;;;;;;76.00;60.00;;;;;-146.39;100.00;62182.44;6312884;20;2881689;-45
2021/12/09 10:15:48;;;;;;;;;93.00;67.33;;;;;-146.39;100.00;62182.44;6314594;20;3662733;-47
2021/12/09 10:18:38;;;;;;;;;64.33;48.67;;;;;-146.39;100.00;62182.44;6315890;20;2875331;-45
2021/12/09 10:21:21;;;;;;;;;93.67;64.33;;;;;-146.39;100.00;62182.44;6317184;20;3652305;-45
2021/12/09 10:24:05;;;;;;;;;89.67;67.00;;;;;-146.39;100.00;62182.44;6315713;20;3643954;-45
2021/12/09 10:26:47;;;;;;;;;72.00;51.00;;;;;-146.39;100.00;62182.44;6315312;20;2872281;-45
2021/12/09 10:29:39;;;;;;;;;63.50;49.50;;;;;-146.39;100.00;62182.44;6283757;20;2852391;-46
2021/12/09 10:32:17;;;;;;;;;67.00;45.00;;;;;-146.39;100.00;62182.44;6282418;20;2497144;-48
2021/12/09 10:34:49;;;;;;;;;81.00;60.67;;;;;-146.39;100.00;62182.44;6283699;20;3652310;-44
2021/12/09 10:37:28;;;;;;;;;83.67;57.33;;;;;-146.39;100.00;62182.44;6316993;20;2893095;-47
2021/12/09 10:40:17;;;;;;;;;76.67;59.00;;;;;-146.39;100.00;62182.44;6316052;20;3624237;-45
2021/12/09 10:42:53;;;;;;;;;64.50;54.00;;;;;-146.39;100.00;62182.44;6313494;20;2489855;-45
2021/12/09 10:45:37;;;;;;;;;64.67;50.33;;;;;-146.39;100.00;62182.44;6285191;20;2867000;-46
2021/12/09 10:48:35;;;;;;;;;70.67;52.00;;;;;-146.39;100.00;62182.44;6316030;20;2884792;-45
2021/12/09 10:56:10;;;;;;;;;80.67;60.33;;;;;-146.39;100.00;62182.44;6315066;20;3651283;-45
2021/12/09 10:58:46;;;;;;;;;75.00;57.33;;;;;-146.39;100.00;62182.44;6312678;20;2880548;-49
2021/12/09 11:01:20;;;;;;;;;85.67;63.33;;;;;-146.39;100.00;62182.44;6315977;20;3640841;-45
2021/12/09 11:03:57;;;;;;;;;48.50;30.00;;;;;-146.39;100.00;62182.44;6318352;20;2827344;-45
2021/12/09 11:06:39;;;;;;;;;87.33;63.33;;;;;-146.39;100.00;62182.44;6282244;20;2893079;-46
2021/12/09 11:09:12;;;;;;;;;84.00;64.33;;;;;-146.39;100.00;62182.44;6313581;20;2888855;-45